Time;durP1;ratioP1;P1;durP2;ratioP2;P2;SDS_P1;SDS_P2;PMS_P1;PMS_P2;Temp;Humidity;BMP_temperature;BMP_pressure;BME280_temperature;BME280_humidity;BME280_pressure;Samples;Min_cycle;Max_cycle;Signal;HPM_P1;HPM_P2
2022/08/05 00:00:25;;;;;;;4.27;1.40;;;18.70;71.50;;;;;;5025489;28;21706;-81
2022/08/05 00:02:52;;;;;;;6.93;1.63;;;18.70;71.10;;;;;;5035907;28;20181;-83
2022/08/05 00:05:23;;;;;;;3.93;1.10;;;18.80;70.60;;;;;;5034412;28;20207;-78
2022/08/05 00:07:50;;;;;;;6.60;1.43;;;18.80;70.20;;;;;;5022027;28;20180;-77
2022/08/05 00:10:17;;;;;;;5.47;1.60;;;18.80;70.30;;;;;;5036883;28;20205;-79
2022/08/05 00:12:45;;;;;;;2.27;1.30;;;18.80;70.20;;;;;;5047332;28;20540;-76
2022/08/05 00:15:12;;;;;;;3.20;1.20;;;18.80;69.90;;;;;;5040495;28;20194;-78
2022/08/05 00:17:42;;;;;;;4.27;1.33;;;18.80;69.00;;;;;;5033426;28;20185;-78
2022/08/05 00:20:10;;;;;;;4.73;1.37;;;18.90;69.10;;;;;;5032999;28;20250;-81
2022/08/05 00:22:41;;;;;;;3.63;1.20;;;19.20;68.50;;;;;;5034861;28;20274;-84
2022/08/05 00:25:08;;;;;;;4.23;1.30;;;19.40;68.20;;;;;;5031666;28;20740;-77
2022/08/05 00:27:35;;;;;;;5.27;1.40;;;19.30;67.10;;;;;;5038431;28;20190;-81
2022/08/05 00:30:04;;;;;;;2.23;1.20;;;19.30;67.20;;;;;;5028803;28;20206;-88
2022/08/05 00:32:32;;;;;;;6.07;1.77;;;19.30;66.90;;;;;;5024761;28;20190;-79
2022/08/05 00:34:59;;;;;;;2.37;1.50;;;19.40;67.20;;;;;;5033116;28;20187;-79
2022/08/05 00:37:26;;;;;;;5.80;1.57;;;19.50;66.50;;;;;;5038839;28;20259;-80
2022/08/05 00:39:54;;;;;;;2.07;1.30;;;19.40;66.20;;;;;;5028710;28;20216;-80
2022/08/05 00:42:31;;;;;;;2.37;1.30;;;19.30;66.30;;;;;;5034621;28;20551;-81
2022/08/05 00:44:59;;;;;;;2.50;1.30;;;19.30;66.70;;;;;;5031575;28;20667;-80
2022/08/05 00:47:26;;;;;;;1.97;1.37;;;19.30;66.30;;;;;;5045602;28;20238;-81
2022/08/05 00:49:54;;;;;;;2.10;1.30;;;19.40;66.80;;;;;;5030837;28;20204;-74
2022/08/05 00:52:21;;;;;;;3.20;1.20;;;19.40;66.10;;;;;;5032976;28;20191;-82
2022/08/05 00:54:49;;;;;;;4.10;1.30;;;19.50;64.80;;;;;;5049805;28;20259;-82
2022/08/05 00:57:17;;;;;;;2.93;1.07;;;19.60;65.60;;;;;;5029287;28;20689;-79
2022/08/05 00:59:44;;;;;;;2.10;1.20;;;19.60;64.40;;;;;;5038538;28;20183;-74
2022/08/05 01:02:12;;;;;;;1.53;1.20;;;19.50;63.80;;;;;;5018221;28;20181;-75
2022/08/05 01:04:39;;;;;;;3.93;1.27;;;19.60;64.20;;;;;;5032996;28;20700;-74
2022/08/05 01:07:06;;;;;;;3.73;1.37;;;19.70;63.90;;;;;;5046206;28;20183;-79
2022/08/05 01:09:34;;;;;;;1.70;1.17;;;19.60;63.90;;;;;;5045044;28;20192;-76
2022/08/05 01:12:08;;;;;;;5.37;1.50;;;19.80;64.00;;;;;;5038851;28;20164;-80
2022/08/05 01:14:39;;;;;;;5.03;1.30;;;19.90;64.20;;;;;;5041890;28;20609;-78
2022/08/05 01:17:11;;;;;;;3.63;1.10;;;19.80;62.70;;;;;;5022391;28;20197;-78
2022/08/05 01:19:44;;;;;;;25.97;6.20;;;19.90;62.80;;;;;;5025123;28;20522;-80
2022/08/05 01:22:14;;;;;;;6.93;1.43;;;20.00;62.90;;;;;;5035217;28;20539;-78
2022/08/05 01:25:10;;;;;;;5.17;1.40;;;20.10;61.80;;;;;;5021746;28;20197;-80
2022/08/05 01:28:14;;;;;;;5.17;1.40;;;20.30;61.10;;;;;;5036520;28;20180;-78
2022/08/05 01:31:07;;;;;;;3.80;1.20;;;20.50;60.10;;;;;;5044356;28;20585;-78
2022/08/05 01:33:43;;;;;;;3.80;1.13;;;20.30;59.50;;;;;;5047296;28;20280;-77
2022/08/05 01:36:16;;;;;;;3.67;1.23;;;20.10;58.70;;;;;;5039240;28;20171;-75
2022/08/05 01:38:47;;;;;;;3.13;1.30;;;20.30;58.20;;;;;;5050844;28;20220;-77
2022/08/05 01:41:17;;;;;;;4.30;1.20;;;20.50;57.70;;;;;;5037171;28;20176;-78
2022/08/05 01:43:46;;;;;;;2.87;1.30;;;20.50;56.90;;;;;;5047397;28;20246;-79
2022/08/05 01:46:14;;;;;;;3.00;1.00;;;20.70;55.40;;;;;;5038204;28;20180;-83
2022/08/05 01:48:44;;;;;;;5.60;0.90;;;21.00;55.00;;;;;;5046703;28;20172;-80
2022/08/05 01:51:14;;;;;;;4.60;0.90;;;21.20;53.40;;;;;;5029882;28;20287;-80
2022/08/05 01:53:42;;;;;;;2.23;0.90;;;21.10;53.80;;;;;;5030989;28;20176;-78
2022/08/05 01:56:10;;;;;;;2.83;0.83;;;21.10;53.20;;;;;;5046639;28;20571;-79
2022/08/05 01:58:40;;;;;;;4.47;1.63;;;21.30;53.40;;;;;;5030701;28;20647;-79
2022/08/05 02:01:11;;;;;;;5.70;1.10;;;21.30;53.30;;;;;;5042166;28;20657;-80
2022/08/05 02:03:44;;;;;;;4.30;1.53;;;21.40;52.80;;;;;;5029077;28;20178;-82
2022/08/05 02:06:12;;;;;;;5.40;1.20;;;21.50;52.10;;;;;;5025232;28;20583;-85
2022/08/05 02:08:40;;;;;;;6.67;1.47;;;21.50;53.00;;;;;;5036457;28;20192;-80
2022/08/05 02:11:13;;;;;;;7.77;1.80;;;21.60;53.20;;;;;;5033345;28;20192;-79
2022/08/05 02:14:17;;;;;;;4.43;1.57;;;21.70;51.60;;;;;;5030556;28;20184;-81
2022/08/05 02:16:50;;;;;;;2.43;1.20;;;21.70;52.10;;;;;;4991095;28;20181;-78
2022/08/05 02:19:48;;;;;;;3.70;1.20;;;21.60;51.80;;;;;;5023481;28;20189;-82
2022/08/05 02:22:26;;;;;;;4.90;1.67;;;21.60;51.60;;;;;;5028905;28;20178;-79
2022/08/05 02:25:00;;;;;;;3.60;1.23;;;21.60;52.60;;;;;;5015833;28;20284;-79
2022/08/05 02:27:32;;;;;;;10.13;1.30;;;21.90;50.60;;;;;;5030052;28;20591;-78
2022/08/05 02:30:01;;;;;;;3.67;0.93;;;22.10;50.20;;;;;;5040595;28;20187;-79
2022/08/05 02:32:31;;;;;;;2.13;0.80;;;22.60;48.10;;;;;;5028008;28;20181;-79
2022/08/05 02:35:04;;;;;;;2.87;1.17;;;22.70;46.60;;;;;;5052162;28;20172;-77
2022/08/05 02:37:34;;;;;;;3.10;0.83;;;22.60;46.80;;;;;;5053112;28;20211;-72
2022/08/05 02:40:02;;;;;;;1.60;0.80;;;22.60;44.40;;;;;;5041195;28;20314;-76
2022/08/05 02:42:31;;;;;;;3.60;1.07;;;22.80;44.50;;;;;;5032920;28;20191;-77
2022/08/05 02:44:59;;;;;;;6.67;1.03;;;22.90;45.20;;;;;;5049215;28;20221;-75
2022/08/05 02:47:30;;;;;;;1.97;1.03;;;23.10;43.70;;;;;;5042826;28;20188;-80
2022/08/05 02:49:58;;;;;;;3.43;0.90;;;23.30;42.80;;;;;;5048634;28;20176;-75
2022/08/05 02:52:25;;;;;;;2.00;0.90;;;23.30;42.00;;;;;;5038308;28;20213;-78
2022/08/05 02:54:53;;;;;;;3.43;1.53;;;23.40;42.10;;;;;;5055584;28;20233;-79
2022/08/05 02:57:22;;;;;;;3.70;1.03;;;23.30;41.60;;;;;;5055655;28;20577;-79
2022/08/05 02:59:50;;;;;;;2.37;1.20;;;23.10;41.50;;;;;;5047553;28;20168;-80
2022/08/05 03:02:21;;;;;;;3.50;0.87;;;23.20;41.20;;;;;;5037019;28;20531;-80
2022/08/05 03:04:51;;;;;;;3.30;0.93;;;23.50;41.10;;;;;;5024585;28;20205;-79
2022/08/05 03:07:19;;;;;;;2.40;0.80;;;23.30;42.00;;;;;;5052066;28;20187;-80
2022/08/05 03:09:47;;;;;;;2.77;1.03;;;23.80;40.70;;;;;;5050150;28;20180;-79
2022/08/05 03:12:34;;;;;;;3.07;1.10;;;24.00;40.40;;;;;;5035989;28;20646;-78
2022/08/05 03:15:03;;;;;;;2.00;0.80;;;23.80;40.10;;;;;;5055126;28;20528;-80
2022/08/05 03:17:30;;;;;;;1.77;0.70;;;24.20;39.90;;;;;;5040556;28;20545;-81
2022/08/05 03:19:58;;;;;;;1.90;0.80;;;24.10;39.60;;;;;;5034738;28;20189;-80
2022/08/05 03:22:26;;;;;;;3.03;0.80;;;24.30;40.20;;;;;;5042922;28;20176;-80
2022/08/05 03:24:54;;;;;;;2.13;0.70;;;24.20;38.70;;;;;;5053868;28;20212;-80
2022/08/05 03:27:22;;;;;;;4.13;1.27;;;24.10;39.20;;;;;;5055479;28;20509;-78
2022/08/05 03:29:53;;;;;;;3.63;1.00;;;24.20;38.70;;;;;;5056334;28;20176;-77
2022/08/05 03:32:21;;;;;;;0.97;0.70;;;24.20;37.70;;;;;;5055760;28;20229;-80
2022/08/05 03:34:48;;;;;;;0.77;0.50;;;24.10;37.80;;;;;;5033085;28;20180;-78
2022/08/05 03:37:16;;;;;;;1.07;0.70;;;24.40;37.80;;;;;;5054408;28;20176;-78
2022/08/05 03:39:58;;;;;;;1.20;0.63;;;24.30;39.10;;;;;;5035481;28;20271;-78
2022/08/05 03:42:25;;;;;;;3.63;0.90;;;24.30;39.50;;;;;;5054333;28;20265;-80
2022/08/05 03:44:52;;;;;;;4.13;1.10;;;24.40;38.60;;;;;;5053168;28;20216;-78
2022/08/05 03:47:20;;;;;;;5.27;0.80;;;24.50;39.20;;;;;;5056550;28;20183;-80
2022/08/05 03:49:47;;;;;;;1.23;0.60;;;24.80;37.70;;;;;;5057379;28;20175;-80
2022/08/05 03:52:22;;;;;;;2.67;0.77;;;25.10;35.90;;;;;;5053577;28;20180;-74
2022/08/05 03:54:53;;;;;;;2.63;0.90;;;24.90;35.90;;;;;;5054193;28;20220;-75
2022/08/05 03:57:25;;;;;;;3.57;0.80;;;24.80;35.70;;;;;;5054544;28;20651;-80
2022/08/05 03:59:59;;;;;;;1.10;0.70;;;24.80;35.60;;;;;;5038441;28;20188;-76
2022/08/05 04:02:30;;;;;;;2.67;0.80;;;24.80;34.80;;;;;;5038817;28;20219;-77
2022/08/05 04:05:02;;;;;;;1.20;0.70;;;24.90;35.00;;;;;;5041168;28;20204;-81
2022/08/05 04:07:30;;;;;;;4.93;1.00;;;24.90;34.50;;;;;;5045416;28;20188;-80
2022/08/05 04:09:58;;;;;;;1.60;0.60;;;25.20;34.50;;;;;;5047439;28;20511;-76
2022/08/05 04:12:25;;;;;;;2.53;0.53;;;25.30;33.90;;;;;;5050055;28;20180;-81
2022/08/05 04:14:53;;;;;;;8.07;0.70;;;25.20;34.30;;;;;;5054096;28;20174;-77
2022/08/05 04:17:21;;;;;;;2.17;0.60;;;25.20;33.80;;;;;;5053938;28;20180;-81
2022/08/05 04:19:49;;;;;;;3.50;0.60;;;25.40;32.90;;;;;;5052201;28;20584;-81
2022/08/05 04:22:19;;;;;;;1.80;0.50;;;25.70;32.20;;;;;;5052204;28;20176;-76
2022/08/05 04:24:47;;;;;;;1.00;0.63;;;25.70;30.20;;;;;;5050348;28;20215;-76
2022/08/05 04:27:14;;;;;;;2.70;0.60;;;24.80;31.60;;;;;;5053589;28;20218;-77
2022/08/05 04:29:42;;;;;;;6.10;0.70;;;24.90;31.00;;;;;;5037791;28;20796;-80
2022/08/05 04:32:09;;;;;;;1.00;0.50;;;25.50;30.30;;;;;;5050956;28;20238;-78
2022/08/05 04:34:37;;;;;;;1.13;0.67;;;25.00;30.40;;;;;;5047189;28;20538;-77
2022/08/05 04:37:04;;;;;;;0.97;0.53;;;24.80;31.90;;;;;;5033109;28;20176;-77
2022/08/05 04:39:33;;;;;;;1.37;0.60;;;25.30;30.20;;;;;;5050180;28;20232;-74
2022/08/05 04:42:00;;;;;;;3.53;0.90;;;25.80;29.60;;;;;;5039474;28;20175;-78
2022/08/05 04:44:28;;;;;;;4.37;0.60;;;25.80;28.90;;;;;;5051531;28;20288;-73
2022/08/05 04:46:55;;;;;;;2.13;0.57;;;26.30;28.30;;;;;;5053064;28;20198;-77
2022/08/05 04:49:26;;;;;;;3.20;0.80;;;26.50;27.50;;;;;;5053038;28;20206;-79
2022/08/05 04:51:54;;;;;;;3.90;0.60;;;26.10;27.90;;;;;;5052130;28;20180;-81
2022/08/05 04:54:21;;;;;;;1.87;0.60;;;26.30;27.80;;;;;;5039103;28;20619;-75
2022/08/05 04:56:48;;;;;;;2.23;0.70;;;26.00;28.10;;;;;;5050076;28;20271;-78
2022/08/05 04:59:16;;;;;;;1.53;0.60;;;25.80;28.60;;;;;;5028695;28;20177;-75
2022/08/05 05:01:43;;;;;;;5.63;0.70;;;26.20;27.50;;;;;;5029494;28;20176;-77
2022/08/05 05:04:10;;;;;;;1.73;0.80;;;25.80;28.40;;;;;;5052195;28;20335;-80
2022/08/05 05:06:38;;;;;;;6.83;0.80;;;25.60;28.60;;;;;;5051261;28;20215;-78
2022/08/05 05:09:06;;;;;;;4.03;0.83;;;26.00;28.50;;;;;;5052247;28;20183;-82
2022/08/05 05:11:33;;;;;;;0.90;0.50;;;26.20;28.70;;;;;;5033350;28;20242;-79
2022/08/05 05:14:02;;;;;;;4.70;0.90;;;26.10;28.80;;;;;;5030042;28;20207;-77
2022/08/05 05:16:30;;;;;;;3.90;0.73;;;26.10;29.00;;;;;;5038932;28;20710;-76
2022/08/05 05:18:57;;;;;;;3.17;0.80;;;26.30;28.10;;;;;;5037836;28;20615;-84
2022/08/05 05:21:24;;;;;;;2.10;0.60;;;25.80;28.60;;;;;;5041445;28;20184;-75
2022/08/05 05:23:52;;;;;;;1.13;0.70;;;25.80;28.70;;;;;;5032954;28;20295;-77
2022/08/05 05:26:19;;;;;;;0.97;0.43;;;25.40;27.50;;;;;;5017482;28;20184;-79
2022/08/05 05:28:46;;;;;;;1.83;0.70;;;25.80;27.40;;;;;;5040055;28;20184;-81
2022/08/05 05:31:14;;;;;;;3.33;0.73;;;25.80;28.30;;;;;;5049894;28;20164;-77
2022/08/05 05:33:41;;;;;;;2.20;0.80;;;25.90;29.30;;;;;;5030948;28;20176;-81
2022/08/05 05:36:09;;;;;;;4.93;0.63;;;26.00;30.70;;;;;;5032537;28;20234;-74
2022/08/05 05:38:37;;;;;;;2.47;0.80;;;25.00;31.70;;;;;;5032869;28;20228;-79
2022/08/05 05:41:05;;;;;;;1.70;0.60;;;24.30;33.80;;;;;;5032663;28;20192;-75
2022/08/05 05:43:32;;;;;;;1.30;0.67;;;24.10;33.70;;;;;;5043084;28;20536;-76
2022/08/05 05:45:59;;;;;;;2.40;0.70;;;24.80;31.80;;;;;;5029392;28;20195;-77
2022/08/05 05:48:27;;;;;;;1.60;0.63;;;25.20;28.30;;;;;;5039810;28;20656;-80
2022/08/05 05:50:54;;;;;;;1.10;0.80;;;25.30;27.80;;;;;;5023767;28;20187;-79
2022/08/05 05:53:21;;;;;;;3.30;0.67;;;25.30;27.70;;;;;;5034613;28;20172;-77
2022/08/05 05:55:49;;;;;;;2.33;0.70;;;25.60;27.30;;;;;;5046849;28;20172;-76
2022/08/05 05:58:16;;;;;;;1.00;0.60;;;25.80;27.10;;;;;;5025600;28;20181;-74
2022/08/05 06:00:44;;;;;;;2.40;1.00;;;25.30;27.30;;;;;;5028680;28;20189;-73
2022/08/05 06:03:11;;;;;;;1.17;0.60;;;25.30;27.50;;;;;;5039394;28;20181;-75
2022/08/05 06:05:38;;;;;;;0.97;0.50;;;25.20;28.00;;;;;;5030861;28;20564;-75
2022/08/05 06:08:06;;;;;;;1.80;0.77;;;25.40;27.50;;;;;;5024588;28;20184;-77
2022/08/05 06:10:33;;;;;;;3.93;0.73;;;25.60;26.80;;;;;;5028394;28;20185;-74
2022/08/05 06:13:01;;;;;;;2.50;0.80;;;25.50;27.10;;;;;;5032229;28;20168;-78
2022/08/05 06:15:28;;;;;;;6.40;0.90;;;25.20;27.10;;;;;;5027254;28;20188;-77
2022/08/05 06:17:56;;;;;;;1.37;0.57;;;24.10;28.10;;;;;;5034855;28;20207;-74
2022/08/05 06:20:23;;;;;;;1.70;0.77;;;23.50;28.90;;;;;;5047187;28;20658;-73
2022/08/05 06:22:50;;;;;;;0.97;0.50;;;23.10;29.90;;;;;;5037650;28;20177;-78
2022/08/05 06:25:18;;;;;;;2.23;0.90;;;22.80;29.90;;;;;;5036248;28;20672;-75
2022/08/05 06:27:45;;;;;;;1.90;0.73;;;22.50;30.00;;;;;;5052816;28;20676;-79
2022/08/05 06:30:14;;;;;;;1.43;0.90;;;22.30;30.50;;;;;;5039409;28;20177;-81
2022/08/05 06:32:42;;;;;;;3.10;0.70;;;22.10;31.30;;;;;;5046552;28;20172;-78
2022/08/05 06:35:10;;;;;;;1.07;0.70;;;22.10;31.40;;;;;;5055737;28;20176;-76
2022/08/05 06:37:37;;;;;;;5.03;0.90;;;22.00;31.10;;;;;;5038571;28;20250;-80
2022/08/05 06:40:05;;;;;;;1.87;0.63;;;21.80;31.40;;;;;;5027163;28;20224;-78
2022/08/05 06:42:33;;;;;;;4.17;0.83;;;21.80;31.50;;;;;;5035887;28;20177;-74
2022/08/05 06:45:00;;;;;;;1.77;0.80;;;21.70;31.90;;;;;;5044856;28;20543;-75
2022/08/05 06:47:28;;;;;;;2.87;0.80;;;21.60;32.00;;;;;;5035052;28;20706;-80
2022/08/05 06:49:55;;;;;;;3.00;0.87;;;21.50;32.70;;;;;;5036336;28;20653;-80
2022/08/05 06:52:23;;;;;;;2.57;0.93;;;21.30;33.30;;;;;;5031061;28;20177;-75
2022/08/05 06:54:50;;;;;;;1.73;0.90;;;21.30;33.10;;;;;;5038377;28;20180;-84
2022/08/05 06:57:17;;;;;;;3.87;1.03;;;21.40;33.00;;;;;;5039099;28;20182;-84
2022/08/05 06:59:45;;;;;;;1.83;1.00;;;21.20;33.50;;;;;;5029967;28;20263;-85
2022/08/05 07:02:12;;;;;;;3.67;0.90;;;21.20;34.40;;;;;;5043632;28;20212;-78
2022/08/05 07:04:40;;;;;;;0.60;0.60;;;21.00;34.10;;;;;;5040547;28;21251;-82
2022/08/05 07:07:07;;;;;;;3.07;0.83;;;21.00;34.20;;;;;;5033920;28;20212;-83
2022/08/05 07:09:34;;;;;;;5.33;1.00;;;20.90;34.90;;;;;;5040590;28;20200;-83
2022/08/05 07:12:02;;;;;;;4.73;1.13;;;20.80;35.30;;;;;;5055294;28;20172;-84
2022/08/05 07:17:14;;;;;;;1.50;0.70;;;20.60;35.60;;;;;;5025272;28;20587;-84
2022/08/05 07:19:42;;;;;;;4.63;0.90;;;20.50;36.10;;;;;;5035770;28;20193;-80
2022/08/05 07:22:09;;;;;;;5.33;0.90;;;20.50;36.00;;;;;;5027272;28;20217;-83
2022/08/05 07:24:36;;;;;;;2.77;1.03;;;20.40;36.70;;;;;;5021636;28;20237;-85
2022/08/05 07:27:04;;;;;;;1.30;0.90;;;20.30;36.90;;;;;;5039994;28;20204;-77
2022/08/05 07:29:31;;;;;;;2.57;0.87;;;20.20;37.30;;;;;;5022281;28;20189;-80
2022/08/05 07:31:59;;;;;;;1.43;0.80;;;20.10;37.60;;;;;;5028772;28;20208;-84
2022/08/05 07:34:27;;;;;;;1.57;1.00;;;20.00;37.80;;;;;;5030288;28;20682;-80
2022/08/05 07:36:54;;;;;;;2.67;1.30;;;20.00;38.20;;;;;;5038983;28;20184;-74
2022/08/05 07:39:21;;;;;;;3.70;0.77;;;19.80;38.50;;;;;;5032775;28;20231;-75
2022/08/05 07:41:49;;;;;;;1.70;0.90;;;19.80;38.60;;;;;;5037702;28;20546;-74
2022/08/05 07:44:16;;;;;;;3.90;1.00;;;19.70;39.00;;;;;;5046932;28;20211;-76
2022/08/05 07:46:43;;;;;;;1.07;0.80;;;19.70;39.60;;;;;;5037330;28;20636;-74
2022/08/05 07:49:12;;;;;;;3.20;1.30;;;19.70;39.90;;;;;;5026391;28;20187;-76
2022/08/05 07:51:40;;;;;;;5.83;1.03;;;19.60;40.40;;;;;;5022519;28;20173;-76
2022/08/05 07:54:08;;;;;;;2.23;1.23;;;19.50;40.80;;;;;;5024051;28;20192;-74
2022/08/05 07:56:35;;;;;;;1.87;0.90;;;19.30;41.30;;;;;;5027056;28;20207;-85
2022/08/05 07:59:02;;;;;;;1.13;0.80;;;19.30;41.30;;;;;;5038011;28;20181;-81
2022/08/05 08:01:30;;;;;;;2.07;1.00;;;19.30;41.50;;;;;;5037936;28;20176;-84
2022/08/05 08:03:57;;;;;;;1.23;1.03;;;19.20;41.80;;;;;;5053815;28;20204;-82
2022/08/05 08:06:24;;;;;;;4.70;1.00;;;19.20;41.80;;;;;;5023703;28;20193;-80
2022/08/05 08:08:52;;;;;;;7.70;1.30;;;19.10;42.10;;;;;;5040832;28;20191;-77
2022/08/05 08:11:19;;;;;;;6.73;1.30;;;19.00;42.20;;;;;;5048935;28;20195;-81
2022/08/05 08:13:47;;;;;;;2.43;1.17;;;19.00;42.40;;;;;;5053258;28;20259;-78
2022/08/05 08:16:14;;;;;;;3.40;0.90;;;19.00;41.00;;;;;;5054291;28;20188;-85
2022/08/05 08:18:41;;;;;;;2.63;0.90;;;19.10;41.40;;;;;;5053934;28;20599;-73
2022/08/05 08:21:09;;;;;;;4.63;1.20;;;19.00;41.00;;;;;;5036745;28;20707;-74
2022/08/05 08:23:36;;;;;;;2.03;1.00;;;19.00;40.80;;;;;;5030590;28;20237;-72
2022/08/05 08:26:04;;;;;;;2.10;1.10;;;19.00;41.20;;;;;;5042016;28;20195;-75
2022/08/05 08:28:32;;;;;;;3.53;1.27;;;19.00;41.00;;;;;;5046233;28;20180;-73
2022/08/05 08:30:59;;;;;;;3.10;1.07;;;18.90;41.10;;;;;;5053790;28;20176;-78
2022/08/05 08:33:27;;;;;;;2.27;1.10;;;18.90;41.10;;;;;;5053452;28;20203;-76
2022/08/05 08:35:54;;;;;;;2.90;1.33;;;18.80;41.00;;;;;;5051846;28;20176;-77
2022/08/05 08:38:21;;;;;;;2.60;1.60;;;18.80;41.40;;;;;;5052579;28;20228;-79
2022/08/05 08:40:49;;;;;;;2.70;1.13;;;18.70;41.80;;;;;;5036774;28;20575;-77
2022/08/05 08:43:18;;;;;;;2.80;1.07;;;18.70;41.50;;;;;;5040531;28;20215;-77
2022/08/05 08:45:48;;;;;;;1.47;1.20;;;18.60;41.00;;;;;;5053660;28;20218;-79
2022/08/05 08:48:18;;;;;;;2.23;1.10;;;18.60;41.20;;;;;;5044156;28;20229;-84
2022/08/05 08:50:47;;;;;;;4.30;1.37;;;18.60;41.30;;;;;;5052729;28;20688;-82
2022/08/05 08:53:17;;;;;;;2.63;1.23;;;18.50;41.30;;;;;;5040692;28;20190;-83
2022/08/05 08:55:45;;;;;;;2.57;1.27;;;18.50;41.30;;;;;;5047070;28;20222;-82
2022/08/05 08:58:16;;;;;;;3.20;1.30;;;18.40;41.90;;;;;;5036662;28;20194;-79
2022/08/05 09:00:43;;;;;;;2.30;1.43;;;18.40;42.00;;;;;;5046039;28;20536;-84
2022/08/05 09:03:11;;;;;;;4.47;1.20;;;18.30;41.90;;;;;;5019642;28;20216;-86
2022/08/05 09:05:39;;;;;;;2.67;1.13;;;18.30;41.90;;;;;;5037573;28;20226;-77
2022/08/05 09:08:07;;;;;;;1.70;1.10;;;18.40;41.10;;;;;;5037496;28;20234;-81
2022/08/05 09:10:34;;;;;;;2.33;1.37;;;18.40;41.20;;;;;;5050064;28;20187;-81
2022/08/05 09:13:01;;;;;;;15.27;1.90;;;18.30;41.30;;;;;;5032700;28;20183;-79
2022/08/05 09:15:29;;;;;;;3.13;1.30;;;18.30;41.60;;;;;;5045132;28;20201;-77
2022/08/05 09:17:56;;;;;;;1.83;1.10;;;18.20;41.60;;;;;;5052827;28;20187;-75
2022/08/05 09:20:24;;;;;;;2.73;0.90;;;18.20;41.20;;;;;;5052336;28;20194;-74
2022/08/05 09:23:16;;;;;;;2.10;1.13;;;18.20;40.40;;;;;;5037385;28;20187;-78
2022/08/05 09:25:46;;;;;;;2.37;0.90;;;18.30;40.00;;;;;;5038385;28;20249;-78
2022/08/05 09:28:18;;;;;;;4.50;1.00;;;18.30;39.40;;;;;;5052691;28;20204;-79
2022/08/05 09:31:12;;;;;;;2.17;1.07;;;18.30;39.00;;;;;;5036847;28;20179;-74
2022/08/05 09:33:54;;;;;;;1.23;0.90;;;18.40;38.40;;;;;;5052760;28;20203;-77
2022/08/05 09:36:21;;;;;;;4.47;0.73;;;18.50;37.70;;;;;;5027445;28;20192;-77
2022/08/05 09:39:07;;;;;;;2.77;0.93;;;18.40;37.30;;;;;;5039763;28;20231;-75
2022/08/05 09:41:34;;;;;;;1.40;0.90;;;18.50;37.10;;;;;;5028516;28;20242;-74
2022/08/05 09:44:02;;;;;;;6.80;1.20;;;18.50;37.10;;;;;;5049456;28;20211;-78
2022/08/05 09:46:35;;;;;;;2.83;0.70;;;18.40;37.30;;;;;;5025192;28;20264;-76
2022/08/05 09:49:05;;;;;;;1.87;1.00;;;18.40;37.40;;;;;;5039095;28;20179;-74
2022/08/05 09:51:38;;;;;;;1.00;0.70;;;18.40;37.50;;;;;;5042569;28;20256;-76
2022/08/05 09:54:07;;;;;;;1.93;0.70;;;18.40;37.10;;;;;;5049489;28;20591;-79
2022/08/05 09:56:37;;;;;;;2.47;0.90;;;18.40;37.60;;;;;;5046653;28;20211;-74
2022/08/05 09:59:11;;;;;;;1.57;0.80;;;18.30;37.90;;;;;;5041109;28;20184;-76
2022/08/05 10:01:42;;;;;;;3.23;0.90;;;18.30;37.40;;;;;;5058780;28;20172;-74
2022/08/05 10:04:12;;;;;;;1.00;0.80;;;18.30;37.40;;;;;;5058810;28;20202;-72
2022/08/05 10:06:41;;;;;;;0.83;0.80;;;18.30;37.70;;;;;;5044483;28;20215;-74
2022/08/05 10:09:22;;;;;;;2.03;1.10;;;18.30;37.90;;;;;;5041260;28;20524;-74
2022/08/05 10:11:52;;;;;;;2.43;0.90;;;18.40;37.70;;;;;;5039514;28;20176;-83
2022/08/05 10:14:31;;;;;;;1.70;0.80;;;18.30;38.30;;;;;;5048704;28;20180;-79
2022/08/05 10:17:13;;;;;;;3.53;0.80;;;18.20;38.70;;;;;;5051794;28;20185;-75
2022/08/05 10:19:41;;;;;;;1.67;0.80;;;18.10;38.70;;;;;;5058838;28;20175;-76
2022/08/05 10:22:09;;;;;;;1.37;1.00;;;18.20;38.70;;;;;;5048696;28;20195;-77
2022/08/05 10:24:36;;;;;;;2.80;1.10;;;18.20;38.70;;;;;;5046388;28;20736;-75
2022/08/05 10:27:04;;;;;;;3.63;0.90;;;18.10;39.10;;;;;;5051096;28;20186;-77
2022/08/05 10:29:35;;;;;;;4.70;0.90;;;18.00;39.30;;;;;;5038828;28;20233;-77
2022/08/05 10:32:03;;;;;;;2.10;0.90;;;17.90;40.00;;;;;;5046762;28;20545;-73
2022/08/05 10:34:31;;;;;;;2.50;0.90;;;17.90;40.10;;;;;;5053379;28;20217;-77
2022/08/05 10:36:59;;;;;;;4.23;1.00;;;17.80;40.10;;;;;;5041507;28;20651;-78
2022/08/05 10:39:36;;;;;;;1.73;0.87;;;17.80;40.10;;;;;;5051755;28;20749;-80
2022/08/05 10:42:20;;;;;;;4.63;1.00;;;17.80;40.30;;;;;;5045354;28;20190;-81
2022/08/05 10:44:48;;;;;;;2.20;0.90;;;17.80;40.40;;;;;;5058909;28;20270;-77
2022/08/05 10:47:16;;;;;;;2.83;0.90;;;17.80;40.80;;;;;;5059276;28;20185;-82
2022/08/05 10:50:17;;;;;;;1.80;1.00;;;17.70;40.90;;;;;;5046381;28;20638;-80
2022/08/05 10:52:59;;;;;;;1.90;0.90;;;17.70;40.90;;;;;;5023126;28;20200;-81
2022/08/05 10:55:29;;;;;;;2.23;0.97;;;17.70;41.00;;;;;;5056150;28;20182;-81
2022/08/05 10:58:12;;;;;;;1.07;0.70;;;17.70;40.70;;;;;;5049074;28;20184;-79
2022/08/05 11:00:46;;;;;;;2.83;0.83;;;17.60;41.00;;;;;;5041202;28;20182;-82
2022/08/05 11:03:14;;;;;;;2.00;1.00;;;17.50;41.50;;;;;;5033244;28;20175;-78
2022/08/05 11:06:01;;;;;;;1.03;0.77;;;17.40;41.30;;;;;;5042797;28;20610;-79
2022/08/05 11:08:29;;;;;;;1.40;0.80;;;17.40;41.10;;;;;;5054471;28;20168;-78
2022/08/05 11:11:35;;;;;;;0.87;0.70;;;17.30;41.60;;;;;;5046223;28;20183;-79
2022/08/05 11:14:03;;;;;;;2.07;0.90;;;17.30;42.10;;;;;;5053479;28;20181;-78
2022/08/05 11:16:31;;;;;;;4.37;0.90;;;17.20;42.30;;;;;;5038792;28;20184;-82
2022/08/05 11:19:27;;;;;;;1.67;0.80;;;17.20;42.30;;;;;;5022378;28;20207;-81
2022/08/05 11:21:56;;;;;;;4.50;0.93;;;17.10;42.20;;;;;;5047382;28;20184;-78
2022/08/05 11:24:23;;;;;;;2.13;1.13;;;17.20;42.10;;;;;;5037530;28;20204;-79
2022/08/05 11:27:29;;;;;;;1.40;0.77;;;17.20;42.50;;;;;;5039623;28;20209;-81
2022/08/05 11:30:00;;;;;;;5.63;1.07;;;17.20;42.30;;;;;;5052447;28;20194;-79
2022/08/05 11:32:29;;;;;;;2.63;1.20;;;17.20;42.50;;;;;;5030075;28;20178;-80
2022/08/05 11:34:57;;;;;;;1.50;1.10;;;17.20;42.60;;;;;;5029774;28;20673;-84
2022/08/05 11:38:03;;;;;;;4.10;1.00;;;17.10;42.70;;;;;;5043606;28;20210;-83
2022/08/05 11:41:09;;;;;;;1.53;1.33;;;17.20;42.80;;;;;;5040239;28;20221;-84
2022/08/05 11:43:38;;;;;;;1.90;0.87;;;17.00;43.10;;;;;;5034295;28;20281;-83
2022/08/05 11:46:05;;;;;;;1.67;0.80;;;17.00;43.10;;;;;;5049609;28;20585;-80
2022/08/05 11:48:34;;;;;;;2.23;0.80;;;16.90;43.50;;;;;;5051921;28;20176;-84
2022/08/05 11:51:02;;;;;;;1.37;1.27;;;16.90;43.90;;;;;;5052247;28;20190;-83
2022/08/05 11:53:29;;;;;;;1.47;0.90;;;16.80;44.00;;;;;;5047487;28;20236;-83
2022/08/05 11:55:59;;;;;;;5.37;1.23;;;16.80;44.40;;;;;;5048875;28;20267;-83
2022/08/05 11:58:36;;;;;;;3.00;1.13;;;16.80;44.50;;;;;;5051807;28;20701;-84
2022/08/05 12:01:07;;;;;;;4.60;1.20;;;16.80;44.20;;;;;;5036576;28;20171;-85
2022/08/05 12:03:56;;;;;;;6.47;1.00;;;16.80;44.40;;;;;;5040753;28;20209;-85
2022/08/05 12:06:28;;;;;;;6.97;1.03;;;16.70;44.60;;;;;;5046090;28;20229;-84
2022/08/05 12:08:59;;;;;;;3.00;1.17;;;16.70;45.30;;;;;;5032845;28;20189;-84
2022/08/05 12:11:30;;;;;;;3.47;1.17;;;16.60;45.40;;;;;;5050369;28;20206;-86
2022/08/05 12:14:00;;;;;;;2.47;1.10;;;16.60;45.40;;;;;;5053895;28;20186;-84
2022/08/05 12:16:32;;;;;;;4.47;1.10;;;16.60;45.60;;;;;;5068015;28;20194;-85
2022/08/05 12:18:59;;;;;;;3.33;1.03;;;16.60;45.60;;;;;;5072220;28;20168;-86
2022/08/05 12:21:33;;;;;;;3.37;1.00;;;16.60;45.80;;;;;;5070243;28;20238;-86
2022/08/05 12:24:07;;;;;;;3.17;1.40;;;16.50;46.10;;;;;;5067194;28;20173;-87
2022/08/05 12:26:47;;;;;;;2.57;1.00;;;16.40;46.40;;;;;;5058356;28;20204;-82
2022/08/05 12:29:26;;;;;;;3.43;1.17;;;16.40;46.20;;;;;;5054163;28;20502;-83
2022/08/05 12:31:55;;;;;;;1.70;0.90;;;16.40;46.40;;;;;;5053037;28;20194;-83
2022/08/05 12:34:29;;;;;;;3.70;1.00;;;16.40;46.30;;;;;;5048457;28;20191;-82
2022/08/05 12:36:59;;;;;;;2.03;1.00;;;16.40;46.20;;;;;;5047307;28;20190;-83
2022/08/05 12:39:27;;;;;;;5.73;0.90;;;16.30;46.40;;;;;;5051313;28;20224;-80
2022/08/05 12:42:00;;;;;;;1.87;1.00;;;16.30;46.20;;;;;;5039619;28;20245;-82
2022/08/05 12:44:28;;;;;;;3.40;0.90;;;16.30;46.10;;;;;;5050394;28;20210;-82
2022/08/05 12:46:56;;;;;;;4.97;1.33;;;16.40;45.70;;;;;;5052780;28;20201;-84
2022/08/05 12:49:23;;;;;;;3.20;1.07;;;16.30;46.20;;;;;;5047266;28;20192;-82
2022/08/05 12:51:53;;;;;;;2.83;1.20;;;16.30;46.30;;;;;;5046346;28;20529;-81
2022/08/05 12:54:23;;;;;;;2.23;1.10;;;16.20;46.40;;;;;;5041057;28;20262;-81
2022/08/05 12:57:12;;;;;;;2.43;1.10;;;16.20;46.90;;;;;;5053530;28;20281;-81
2022/08/05 12:59:45;;;;;;;3.23;1.27;;;16.10;47.50;;;;;;5047342;28;20612;-82
2022/08/05 13:02:35;;;;;;;4.00;1.17;;;16.00;47.40;;;;;;5051292;28;20241;-82
2022/08/05 13:05:06;;;;;;;2.27;1.30;;;15.90;48.10;;;;;;5043995;28;20213;-80